Time;durP1;ratioP1;P1;durP2;ratioP2;P2;SDS_P1;SDS_P2;PMS_P1;PMS_P2;Temp;Humidity;BMP_temperature;BMP_pressure;BME280_temperature;BME280_humidity;BME280_pressure;Samples;Min_cycle;Max_cycle;Signal;HPM_P1;HPM_P2
2022/05/03 00:00:24;;;;;;;4.22;3.83;;;;;;;5.54;80.41;101850.28;1041488;28;20737;-77
2022/05/03 00:01:09;;;;;;;4.35;2.70;;;;;;;5.59;80.79;101848.00;1039429;28;20304;-77
2022/05/03 00:01:59;;;;;;;6.47;3.10;;;;;;;5.65;80.62;101844.69;1039712;28;20299;-78
2022/05/03 00:02:44;;;;;;;4.90;3.83;;;;;;;5.46;80.65;101844.94;1035344;28;20806;-78
2022/05/03 00:03:24;;;;;;;3.20;2.90;;;;;;;5.67;80.82;101848.00;1034025;28;20329;-77
2022/05/03 00:04:04;;;;;;;5.15;2.95;;;;;;;5.34;80.56;101846.22;1033772;28;20300;-77
2022/05/03 00:05:04;;;;;;;4.82;3.65;;;;;;;5.14;80.98;101849.06;1038071;28;20690;-78
2022/05/03 00:06:02;;;;;;;9.07;3.22;;;;;;;5.27;81.37;101843.38;1043299;28;20048;-77
2022/05/03 00:06:56;;;;;;;4.57;2.53;;;;;;;5.26;81.58;101847.84;1043440;28;20299;-77
2022/05/03 00:07:48;;;;;;;3.08;2.78;;;;;;;5.10;81.63;101842.44;1042363;28;20291;-77
2022/05/03 00:08:24;;;;;;;3.60;3.30;;;;;;;5.22;82.50;101846.50;1029338;28;20330;-77
2022/05/03 00:09:05;;;;;;;4.30;3.00;;;;;;;5.21;82.29;101842.19;1025212;28;20291;-77
2022/05/03 00:09:39;;;;;;;3.80;2.75;;;;;;;5.21;82.18;101844.00;1039798;28;20296;-77
2022/05/03 00:10:36;;;;;;;4.70;2.92;;;;;;;5.35;81.96;101839.94;1042042;28;20789;-77
2022/05/03 00:11:30;;;;;;;3.35;3.13;;;;;;;5.11;81.82;101835.34;1040003;28;20314;-77
2022/05/03 00:12:04;;;;;;;5.10;3.08;;;;;;;5.16;82.25;101847.09;1042978;28;20320;-77
2022/05/03 00:12:41;;;;;;;3.10;2.80;;;;;;;5.17;82.21;101842.63;1039638;28;20643;-77
2022/05/03 00:13:18;;;;;;;3.25;2.85;;;;;;;5.09;81.84;101840.78;1035527;28;20309;-77
2022/05/03 00:13:58;;;;;;;3.40;3.10;;;;;;;4.95;81.96;101844.00;1037851;28;20311;-77
2022/05/03 00:14:39;;;;;;;3.75;3.17;;;;;;;4.95;82.23;101841.38;1034607;28;20312;-77
2022/05/03 00:15:12;;;;;;;3.55;2.90;;;;;;;5.11;81.97;101832.72;1031664;28;20039;-77
2022/05/03 00:15:44;;;;;;;7.82;3.20;;;;;;;5.25;81.36;101834.78;1027740;28;20039;-77
2022/05/03 00:16:16;;;;;;;4.22;3.60;;;;;;;5.17;81.49;101840.81;1031368;28;20298;-77
2022/05/03 00:16:49;;;;;;;3.75;3.13;;;;;;;5.19;82.32;101836.22;1036344;28;20305;-77
2022/05/03 00:17:22;;;;;;;5.75;3.38;;;;;;;5.08;82.58;101846.22;1036431;28;20293;-77
2022/05/03 00:17:54;;;;;;;5.82;3.03;;;;;;;5.00;82.62;101840.91;1038236;28;20802;-77
2022/05/03 00:18:25;;;;;;;5.45;3.10;;;;;;;5.01;82.02;101838.09;1039334;28;20394;-76
2022/05/03 00:18:57;;;;;;;4.32;3.53;;;;;;;5.02;82.18;101838.94;1040351;28;20464;-77
2022/05/03 00:19:29;;;;;;;3.20;2.90;;;;;;;5.11;81.51;101836.19;1036925;28;20300;-77
2022/05/03 00:20:02;;;;;;;5.60;2.83;;;;;;;4.89;81.83;101836.69;1034798;28;20313;-77
2022/05/03 00:20:35;;;;;;;4.40;2.95;;;;;;;4.87;82.10;101834.19;1031724;28;21319;-77
2022/05/03 00:21:07;;;;;;;4.13;3.58;;;;;;;4.72;82.74;101837.56;1032415;28;20640;-77
2022/05/03 00:21:39;;;;;;;3.38;3.00;;;;;;;4.76;82.70;101838.91;1031922;28;20799;-77
2022/05/03 00:22:13;;;;;;;4.00;3.00;;;;;;;4.97;83.26;101837.59;1037087;28;20312;-77
2022/05/03 00:22:45;;;;;;;11.73;3.58;;;;;;;4.95;83.18;101841.38;1039510;28;20345;-77
2022/05/03 00:23:17;;;;;;;9.82;3.88;;;;;;;5.02;82.89;101842.41;1035961;28;20774;-78
2022/05/03 00:23:50;;;;;;;5.80;3.40;;;;;;;4.92;82.29;101833.72;1035471;28;20659;-77
2022/05/03 00:24:21;;;;;;;5.78;3.92;;;;;;;4.96;82.14;101835.09;1037739;28;20300;-77
2022/05/03 00:24:56;;;;;;;5.32;3.55;;;;;;;5.03;82.06;101830.84;1033661;28;20289;-77
2022/05/03 00:25:29;;;;;;;3.85;3.50;;;;;;;5.02;82.64;101836.28;1039453;28;20304;-77
2022/05/03 00:26:01;;;;;;;4.15;3.75;;;;;;;5.02;82.66;101833.66;1039619;28;20304;-77
2022/05/03 00:26:33;;;;;;;3.85;3.22;;;;;;;5.10;82.60;101831.88;1040761;28;20350;-77
2022/05/03 00:27:05;;;;;;;8.55;4.00;;;;;;;5.12;82.67;101832.53;1036599;28;20304;-77
2022/05/03 00:27:37;;;;;;;5.20;3.97;;;;;;;5.18;82.72;101833.72;1031417;28;20483;-77
2022/05/03 00:28:09;;;;;;;8.48;4.07;;;;;;;5.26;82.67;101831.16;1027112;28;20297;-78
2022/05/03 00:28:42;;;;;;;4.60;4.18;;;;;;;5.24;82.94;101833.97;1028860;28;20308;-77
2022/05/03 00:29:14;;;;;;;6.97;4.53;;;;;;;5.24;82.79;101828.69;1036977;28;20319;-77
2022/05/03 00:29:45;;;;;;;7.18;4.30;;;;;;;5.27;82.93;101836.28;1039635;28;20288;-77
2022/05/03 00:30:17;;;;;;;5.15;3.80;;;;;;;5.25;82.74;101827.69;1036387;28;20319;-78
2022/05/03 00:30:49;;;;;;;7.38;3.83;;;;;;;5.28;82.89;101830.00;1035449;28;20640;-77
2022/05/03 00:31:21;;;;;;;7.85;4.63;;;;;;;5.34;83.01;101827.72;1036097;28;20375;-77
2022/05/03 00:31:53;;;;;;;13.90;5.70;;;;;;;5.34;82.63;101827.72;1035947;28;20678;-77
2022/05/03 00:32:28;;;;;;;16.20;5.95;;;;;;;5.41;82.65;101831.38;1036106;28;20985;-77
2022/05/03 00:33:02;;;;;;;7.63;3.90;;;;;;;5.44;82.43;101823.13;1035673;28;20350;-77
2022/05/03 00:33:34;;;;;;;6.13;3.83;;;;;;;5.47;82.48;101828.09;1039093;28;20714;-77
2022/05/03 00:34:05;;;;;;;11.02;4.22;;;;;;;5.41;82.33;101826.09;1034811;28;20817;-78
2022/05/03 00:34:37;;;;;;;14.13;4.32;;;;;;;5.50;82.24;101827.81;1036801;28;20300;-78
2022/05/03 00:35:10;;;;;;;16.40;5.00;;;;;;;5.41;82.54;101829.56;1039619;28;20307;-77
2022/05/03 00:35:42;;;;;;;12.85;4.63;;;;;;;5.48;82.65;101824.50;1036291;28;20889;-77
2022/05/03 00:36:14;;;;;;;27.20;6.25;;;;;;;5.32;82.40;101825.25;1043664;28;20314;-77
2022/05/03 00:36:45;;;;;;;26.35;5.65;;;;;;;5.36;82.79;101825.75;1039624;28;20643;-78
2022/05/03 00:37:17;;;;;;;16.02;5.10;;;;;;;5.44;82.70;101815.22;1035787;28;20319;-77
2022/05/03 00:37:48;;;;;;;29.83;5.40;;;;;;;5.31;82.60;101822.75;1035367;28;20663;-77
2022/05/03 00:38:20;;;;;;;14.50;5.38;;;;;;;5.11;82.66;101814.22;1029120;28;20306;-77
2022/05/03 00:38:52;;;;;;;14.82;4.65;;;;;;;5.09;82.86;101821.47;1031915;28;20706;-77
2022/05/03 00:39:23;;;;;;;12.55;4.35;;;;;;;5.04;83.04;101816.66;1031989;28;20967;-78
2022/05/03 00:39:55;;;;;;;5.00;3.65;;;;;;;5.11;83.27;101816.88;1032611;28;20293;-77
2022/05/03 00:40:28;;;;;;;4.13;3.72;;;;;;;5.12;83.05;101821.97;1039515;28;20303;-78
2022/05/03 00:41:01;;;;;;;4.22;3.83;;;;;;;5.17;83.18;101819.69;1032165;28;20302;-77
2022/05/03 00:41:41;;;;;;;4.32;3.95;;;;;;;5.11;83.23;101822.16;1032542;28;20304;-78
2022/05/03 00:42:21;;;;;;;4.70;4.00;;;;;;;5.10;83.37;101817.84;1033843;28;20305;-78
2022/05/03 00:43:19;;;;;;;4.35;3.97;;;;;;;5.06;83.62;101817.34;1035781;28;20586;-77
2022/05/03 00:44:03;;;;;;;5.30;3.22;;;;;;;5.16;83.03;101810.13;1043591;28;20299;-77
2022/05/03 00:45:27;;;;;;;3.55;3.05;;;;;;;4.80;82.91;101816.50;1043212;28;20345;-77
2022/05/03 00:46:02;;;;;;;3.85;3.28;;;;;;;4.64;83.73;101812.75;1041260;28;20056;-77
2022/05/03 00:46:37;;;;;;;4.43;3.97;;;;;;;4.83;84.26;101818.81;1042169;28;20747;-77
2022/05/03 00:47:14;;;;;;;4.25;3.58;;;;;;;4.87;84.32;101825.44;1044433;28;20306;-77
2022/05/03 00:47:46;;;;;;;4.28;3.03;;;;;;;4.64;84.16;101825.94;1044207;28;20361;-77
2022/05/03 00:48:43;;;;;;;4.50;3.10;;;;;;;4.43;84.38;101817.53;1044294;28;20427;-77
2022/05/03 00:49:32;;;;;;;5.38;3.45;;;;;;;4.56;84.87;101820.59;1044338;28;20953;-77
2022/05/03 00:50:10;;;;;;;6.55;3.10;;;;;;;4.35;84.87;101822.72;1040426;28;20300;-78
2022/05/03 00:50:45;;;;;;;4.60;3.22;;;;;;;4.41;84.76;101819.50;1037898;28;20311;-78
2022/05/03 00:51:18;;;;;;;3.47;3.17;;;;;;;4.29;85.32;101820.69;1040279;28;20304;-77
2022/05/03 00:51:55;;;;;;;4.97;3.30;;;;;;;4.03;85.37;101831.16;1037953;28;20443;-77
2022/05/03 00:52:38;;;;;;;3.75;3.45;;;;;;;3.93;86.11;101833.88;1040460;28;20300;-77
2022/05/03 00:53:18;;;;;;;3.72;2.90;;;;;;;4.47;85.47;101826.81;1036144;28;20659;-77
2022/05/03 00:54:18;;;;;;;8.35;4.32;;;;;;;4.62;84.54;101822.63;1044055;28;20303;-79
2022/05/03 00:55:20;;;;;;;3.95;3.55;;;;;;;4.79;84.33;101817.50;1044727;28;20051;-77
2022/05/03 00:56:09;;;;;;;3.85;3.45;;;;;;;4.64;83.65;101809.28;1042443;28;20738;-77
2022/05/03 00:57:01;;;;;;;4.32;3.50;;;;;;;4.70;83.77;101813.13;1043489;28;20442;-77
2022/05/03 00:58:01;;;;;;;5.05;3.50;;;;;;;4.60;83.65;101806.13;1040297;28;20311;-77
2022/05/03 00:58:56;;;;;;;4.45;3.00;;;;;;;4.45;83.80;101807.66;1044310;28;20295;-78
2022/05/03 00:59:50;;;;;;;7.35;4.68;;;;;;;4.39;84.27;101818.84;1039296;28;20312;-78
2022/05/03 01:00:22;;;;;;;5.65;4.40;;;;;;;4.32;84.25;101813.31;1036089;28;20297;-78
2022/05/03 01:01:06;;;;;;;6.07;4.53;;;;;;;4.46;84.54;101813.78;1032453;28;20289;-77
2022/05/03 01:01:51;;;;;;;5.80;4.57;;;;;;;4.53;84.52;101820.91;1034440;28;20357;-77
2022/05/03 01:02:29;;;;;;;7.43;4.00;;;;;;;4.51;84.46;101822.88;1040270;28;20299;-77
2022/05/03 01:03:10;;;;;;;5.90;4.82;;;;;;;4.55;84.52;101815.50;1044447;28;20306;-78
2022/05/03 01:04:11;;;;;;;7.00;3.78;;;;;;;4.32;84.56;101815.13;1040368;28;20370;-77
2022/05/03 01:05:09;;;;;;;6.18;4.35;;;;;;;4.32;85.03;101823.03;1039406;28;20297;-78
2022/05/03 01:05:50;;;;;;;9.48;4.82;;;;;;;4.24;85.54;101817.69;1044590;28;20295;-78
2022/05/03 01:06:37;;;;;;;9.45;4.10;;;;;;;4.19;85.25;101815.50;1044484;28;20386;-77
2022/05/03 01:07:20;;;;;;;7.82;4.15;;;;;;;4.31;85.45;101818.75;1044594;28;20151;-78
2022/05/03 01:08:04;;;;;;;11.05;5.32;;;;;;;4.54;85.43;101814.66;1040165;28;20367;-77
2022/05/03 01:08:46;;;;;;;14.13;6.00;;;;;;;4.56;85.35;101820.59;1038628;28;20628;-77
2022/05/03 01:09:34;;;;;;;29.45;7.35;;;;;;;4.73;85.41;101818.94;1036007;28;20343;-77
2022/05/03 01:10:18;;;;;;;22.50;8.65;;;;;;;4.67;84.86;101813.44;1033802;28;20293;-77
2022/05/03 01:11:06;;;;;;;14.60;8.15;;;;;;;4.77;85.14;101817.63;1038175;28;20730;-77
2022/05/03 01:11:47;;;;;;;19.05;10.43;;;;;;;4.86;85.29;101813.25;1044369;28;20777;-77
2022/05/03 01:12:26;;;;;;;21.45;9.55;;;;;;;4.90;85.45;101814.59;1035948;28;20395;-77
2022/05/03 01:13:06;;;;;;;20.40;8.52;;;;;;;4.80;85.48;101813.88;1036071;28;20297;-78
2022/05/03 01:13:45;;;;;;;21.17;8.00;;;;;;;4.76;85.32;101817.78;1034392;28;20668;-77
2022/05/03 01:14:34;;;;;;;26.92;6.82;;;;;;;4.32;86.11;101812.47;1039731;28;20291;-77
2022/05/03 01:15:09;;;;;;;12.55;6.35;;;;;;;4.28;86.23;101826.97;1044456;28;20302;-77
2022/05/03 01:15:47;;;;;;;11.88;7.32;;;;;;;4.43;86.91;101820.19;1040877;28;20725;-77
2022/05/03 01:16:33;;;;;;;10.25;6.60;;;;;;;4.50;86.27;101817.75;1036284;28;20657;-77
2022/05/03 01:17:13;;;;;;;10.13;7.15;;;;;;;4.51;85.92;101812.34;1036746;28;20316;-77
2022/05/03 01:18:21;;;;;;;22.10;6.75;;;;;;;4.48;85.50;101807.38;1033893;28;20664;-77
2022/05/03 01:19:30;;;;;;;11.90;6.93;;;;;;;4.46;85.36;101805.84;1041825;28;20363;-77
2022/05/03 01:20:06;;;;;;;7.10;6.40;;;;;;;4.26;85.51;101811.28;1042429;28;20299;-77
2022/05/03 01:20:47;;;;;;;9.52;6.32;;;;;;;4.12;85.32;101803.91;1037701;28;20723;-77
2022/05/03 01:21:46;;;;;;;8.10;5.65;;;;;;;4.09;85.66;101808.63;1036573;28;20296;-77
2022/05/03 01:22:49;;;;;;;13.55;5.88;;;;;;;4.08;86.33;101817.53;1038661;28;20045;-77
2022/05/03 01:23:39;;;;;;;14.43;6.18;;;;;;;4.33;86.43;101811.50;1044284;28;20661;-77
2022/05/03 01:24:35;;;;;;;12.73;6.22;;;;;;;4.32;86.68;101815.94;1044574;28;20787;-77
2022/05/03 01:25:13;;;;;;;9.90;4.97;;;;;;;4.50;86.28;101818.59;1042311;28;20285;-77
2022/05/03 01:25:45;;;;;;;20.77;4.60;;;;;;;4.52;86.14;101806.06;1042675;28;20607;-77
2022/05/03 01:26:33;;;;;;;68.38;10.55;;;;;;;4.52;85.68;101816.63;1044553;28;20637;-77
2022/05/03 01:27:32;;;;;;;85.38;10.23;;;;;;;4.57;85.49;101814.34;1042747;28;20299;-77
2022/05/03 01:28:22;;;;;;;40.40;5.97;;;;;;;4.41;85.58;101818.69;1038760;28;20359;-77
2022/05/03 01:29:12;;;;;;;24.98;5.57;;;;;;;4.40;85.64;101812.56;1036077;28;20297;-77
2022/05/03 01:29:46;;;;;;;18.05;5.13;;;;;;;4.47;85.64;101813.63;1040356;28;20749;-77
2022/05/03 01:30:18;;;;;;;14.23;5.13;;;;;;;4.44;85.52;101819.19;1043976;28;20345;-77
2022/05/03 01:30:50;;;;;;;67.72;7.60;;;;;;;4.10;86.15;101819.03;1043544;28;20309;-77
2022/05/03 01:31:22;;;;;;;140.52;11.75;;;;;;;4.22;86.19;101817.03;1035845;28;20312;-77
2022/05/03 01:31:57;;;;;;;160.60;12.73;;;;;;;4.23;86.37;101824.78;1032018;28;20297;-77
2022/05/03 01:32:32;;;;;;;162.95;14.20;;;;;;;4.22;86.51;101819.66;1029000;28;20310;-77
2022/05/03 01:33:08;;;;;;;69.68;11.32;;;;;;;4.27;86.75;101818.22;1032992;28;20305;-77
2022/05/03 01:33:45;;;;;;;44.22;7.22;;;;;;;4.32;86.29;101815.94;1037958;28;20794;-77
2022/05/03 01:34:19;;;;;;;22.40;6.75;;;;;;;4.39;86.57;101816.19;1040650;28;20352;-77
2022/05/03 01:34:52;;;;;;;12.93;4.38;;;;;;;4.40;86.46;101815.22;1039844;28;20304;-77
2022/05/03 01:35:25;;;;;;;18.75;4.93;;;;;;;4.39;86.58;101820.66;1035961;28;20666;-77
2022/05/03 01:35:59;;;;;;;9.52;3.45;;;;;;;4.38;86.76;101814.50;1032232;28;20296;-77
2022/05/03 01:36:59;;;;;;;10.02;4.60;;;;;;;4.54;86.34;101816.47;1034455;28;20293;-77
2022/05/03 01:38:02;;;;;;;4.82;3.58;;;;;;;4.49;86.08;101811.66;1044624;28;20295;-77
2022/05/03 01:38:46;;;;;;;5.18;4.68;;;;;;;4.60;85.92;101813.22;1043343;28;20300;-77
2022/05/03 01:39:46;;;;;;;4.05;3.70;;;;;;;4.45;86.31;101809.47;1040079;28;20358;-77
2022/05/03 01:40:46;;;;;;;4.00;3.60;;;;;;;4.41;86.45;101814.22;1035331;28;20296;-77
2022/05/03 01:41:42;;;;;;;5.28;4.68;;;;;;;4.45;86.42;101809.47;1042662;28;20303;-77
2022/05/03 01:42:14;;;;;;;5.15;3.92;;;;;;;4.41;86.21;101811.59;1042920;28;20318;-77
2022/05/03 01:42:51;;;;;;;6.55;3.95;;;;;;;4.61;86.59;101813.06;1043841;28;20310;-77
2022/05/03 01:43:43;;;;;;;5.90;4.00;;;;;;;4.39;85.75;101810.91;1039633;28;20312;-77
2022/05/03 01:44:50;;;;;;;6.57;3.95;;;;;;;4.46;86.33;101808.50;1044179;28;20283;-77
2022/05/03 01:45:31;;;;;;;4.85;3.90;;;;;;;4.30;86.47;101814.44;1042812;28;20307;-77
2022/05/03 01:46:35;;;;;;;6.07;4.40;;;;;;;4.15;86.78;101808.88;1039579;28;20292;-77
2022/05/03 01:47:26;;;;;;;6.63;4.28;;;;;;;4.19;87.68;101819.97;1034011;28;20320;-77
2022/05/03 01:48:18;;;;;;;5.45;4.43;;;;;;;4.22;87.67;101815.22;1039046;28;20390;-77
2022/05/03 01:50:19;;;;;;;5.90;4.70;;;;;;;4.18;86.89;101816.50;1034006;28;20301;-77
2022/05/03 01:51:00;;;;;;;5.28;3.90;;;;;;;4.11;87.60;101807.53;1034263;28;20416;-77
2022/05/03 01:52:10;;;;;;;4.38;3.90;;;;;;;3.95;87.94;101818.72;1041783;28;20046;-77
2022/05/03 01:53:09;;;;;;;5.47;3.83;;;;;;;3.78;87.78;101816.88;1043647;28;20048;-77
2022/05/03 01:53:45;;;;;;;8.30;4.88;;;;;;;4.01;88.57;101817.31;1043645;28;20299;-77
2022/05/03 01:54:32;;;;;;;8.02;4.50;;;;;;;4.03;88.67;101816.16;1044465;28;20291;-77
2022/05/03 01:55:03;;;;;;;7.15;4.00;;;;;;;4.11;88.54;101811.94;1044665;28;20303;-77
2022/05/03 01:55:48;;;;;;;5.88;4.38;;;;;;;4.06;88.13;101811.56;1044283;28;20295;-77
2022/05/03 01:56:28;;;;;;;7.93;4.68;;;;;;;4.02;87.45;101811.88;1042928;28;20693;-77
2022/05/03 01:57:39;;;;;;;6.05;4.85;;;;;;;3.81;88.03;101806.03;1042141;28;20331;-77
2022/05/03 01:58:20;;;;;;;7.07;4.78;;;;;;;3.86;88.38;101814.38;1039095;28;20057;-77
2022/05/03 01:59:08;;;;;;;8.65;5.18;;;;;;;3.69;88.08;101807.25;1041744;28;20639;-77
2022/05/03 02:00:07;;;;;;;5.10;3.90;;;;;;;3.85;88.40;101812.72;1038677;28;20344;-76
2022/05/03 02:00:56;;;;;;;6.90;4.88;;;;;;;3.86;88.59;101809.09;1036983;28;20660;-77
2022/05/03 02:01:36;;;;;;;5.95;4.72;;;;;;;3.98;88.58;101807.88;1038092;28;20296;-77
2022/05/03 02:02:39;;;;;;;5.50;4.22;;;;;;;3.94;88.63;101806.53;1037774;28;20284;-76
2022/05/03 02:03:29;;;;;;;5.63;4.32;;;;;;;3.94;88.87;101810.97;1044102;28;20560;-77
2022/05/03 02:04:27;;;;;;;6.25;5.15;;;;;;;3.98;88.97;101818.44;1041731;28;20299;-77
2022/05/03 02:05:02;;;;;;;8.85;4.25;;;;;;;3.87;89.17;101810.75;1036019;28;20333;-77
2022/05/03 02:05:53;;;;;;;6.75;4.50;;;;;;;3.97;88.88;101816.78;1037829;28;20288;-76
2022/05/03 02:07:09;;;;;;;7.50;4.50;;;;;;;3.97;89.09;101814.13;1043756;28;20299;-76
2022/05/03 02:07:46;;;;;;;4.40;3.92;;;;;;;3.90;88.69;101810.44;1034681;28;20040;-77
2022/05/03 02:08:21;;;;;;;7.45;5.35;;;;;;;3.72;88.55;101812.22;1043400;28;20299;-76
2022/05/03 02:09:01;;;;;;;3.85;3.45;;;;;;;3.67;88.47;101809.19;1044072;28;20318;-76
2022/05/03 02:09:44;;;;;;;6.53;4.53;;;;;;;3.71;88.96;101805.28;1043780;28;20303;-76
2022/05/03 02:10:26;;;;;;;4.82;4.38;;;;;;;3.95;88.54;101813.47;1035650;28;20043;-76
2022/05/03 02:11:16;;;;;;;5.55;4.45;;;;;;;3.77;88.55;101817.03;1035741;28;20305;-76
2022/05/03 02:12:02;;;;;;;5.10;4.60;;;;;;;3.84;88.25;101811.03;1038724;28;20029;-77
2022/05/03 02:12:34;;;;;;;5.60;5.07;;;;;;;3.87;87.84;101809.91;1043919;28;20314;-77
2022/05/03 02:13:24;;;;;;;5.25;4.78;;;;;;;3.84;87.99;101810.22;1039721;28;20296;-76
2022/05/03 02:15:03;;;;;;;5.88;4.05;;;;;;;3.65;87.98;101811.16;1039716;28;20042;-76
2022/05/03 02:15:44;;;;;;;15.25;5.97;;;;;;;3.47;89.17;101810.25;1038561;28;20690;-76
2022/05/03 02:16:16;;;;;;;9.82;5.82;;;;;;;3.51;89.56;101809.00;1040015;28;20698;-77
2022/05/03 02:17:05;;;;;;;11.63;5.28;;;;;;;3.50;89.24;101818.69;1040099;28;20299;-77
2022/05/03 02:17:46;;;;;;;9.15;5.07;;;;;;;3.30;90.32;101810.06;1039317;28;20315;-77
2022/05/03 02:18:32;;;;;;;5.68;5.10;;;;;;;3.19;90.78;101814.66;1039695;28;20292;-76
2022/05/03 02:19:08;;;;;;;9.10;5.53;;;;;;;3.26;91.07;101810.47;1044266;28;20630;-77
2022/05/03 02:20:20;;;;;;;5.72;5.03;;;;;;;3.53;90.97;101809.66;1044724;28;20292;-77
2022/05/03 02:21:17;;;;;;;5.53;4.60;;;;;;;3.77;90.33;101812.59;1044708;28;20290;-76
2022/05/03 02:22:04;;;;;;;5.55;5.00;;;;;;;3.80;90.01;101804.38;1044137;28;20174;-76
2022/05/03 02:22:52;;;;;;;6.72;5.00;;;;;;;3.85;89.29;101810.06;1040210;28;20832;-76
2022/05/03 02:24:02;;;;;;;5.55;4.97;;;;;;;3.90;89.03;101809.63;1040671;28;20296;-77
2022/05/03 02:24:39;;;;;;;7.43;5.32;;;;;;;3.93;89.05;101804.88;1042563;28;20295;-77
2022/05/03 02:25:32;;;;;;;6.25;5.60;;;;;;;3.78;88.48;101803.72;1044184;28;20310;-77
2022/05/03 02:26:18;;;;;;;5.28;4.63;;;;;;;3.76;88.71;101810.09;1040211;28;20647;-76
2022/05/03 02:27:03;;;;;;;5.65;5.15;;;;;;;3.75;88.39;101811.91;1044049;28;20825;-76
2022/05/03 02:27:35;;;;;;;6.32;5.40;;;;;;;3.71;88.27;101811.38;1040016;28;20304;-77
2022/05/03 02:28:38;;;;;;;12.43;5.93;;;;;;;3.73;88.20;101811.22;1036090;28;20348;-77
2022/05/03 02:29:23;;;;;;;6.55;5.10;;;;;;;3.64;88.50;101814.75;1033842;28;20815;-77
2022/05/03 02:29:57;;;;;;;11.88;4.88;;;;;;;3.55;88.44;101815.63;1040551;28;20311;-77
2022/05/03 02:30:31;;;;;;;6.97;4.85;;;;;;;3.67;88.86;101817.09;1037646;28;20324;-77
2022/05/03 02:31:05;;;;;;;7.18;5.50;;;;;;;3.28;88.89;101809.38;1038599;28;20434;-76
2022/05/03 02:31:37;;;;;;;8.32;5.18;;;;;;;3.35;89.27;101815.72;1039839;28;20300;-77
2022/05/03 02:32:11;;;;;;;12.88;4.88;;;;;;;3.45;89.26;101815.69;1041411;28;20383;-76
2022/05/03 02:33:08;;;;;;;7.57;4.72;;;;;;;3.29;88.76;101815.50;1038113;28;20303;-76
2022/05/03 02:33:48;;;;;;;14.18;5.38;;;;;;;3.44;89.40;101807.94;1033794;28;20827;-77
2022/05/03 02:34:45;;;;;;;7.97;5.43;;;;;;;3.59;89.01;101803.84;1036751;28;20293;-77
2022/05/03 02:35:24;;;;;;;7.65;5.30;;;;;;;3.55;89.07;101802.44;1034560;28;20316;-77
2022/05/03 02:35:59;;;;;;;6.85;5.45;;;;;;;3.60;88.58;101810.78;1036529;28;20663;-76
2022/05/03 02:36:35;;;;;;;7.25;4.95;;;;;;;3.51;88.85;101803.72;1037700;28;20352;-77
2022/05/03 02:37:15;;;;;;;4.82;4.30;;;;;;;3.24;88.52;101807.16;1042347;28;20670;-77
2022/05/03 02:38:06;;;;;;;8.52;5.22;;;;;;;3.40;89.21;101797.69;1040437;28;20288;-77
2022/05/03 02:38:43;;;;;;;6.50;5.30;;;;;;;3.30;89.29;101812.72;1042929;28;20298;-76
2022/05/03 02:39:19;;;;;;;5.50;5.00;;;;;;;3.35;89.33;101810.47;1039623;28;20037;-76
2022/05/03 02:39:56;;;;;;;5.18;4.68;;;;;;;3.37;89.16;101808.50;1043811;28;20310;-76
2022/05/03 02:40:29;;;;;;;9.32;5.60;;;;;;;3.49;89.45;101800.41;1043518;28;20288;-76
2022/05/03 02:41:03;;;;;;;6.00;5.32;;;;;;;3.33;89.79;101801.88;1039930;28;20299;-77
2022/05/03 02:41:38;;;;;;;7.15;5.15;;;;;;;3.41;90.01;101804.59;1032846;28;20787;-76
2022/05/03 02:42:09;;;;;;;5.50;5.00;;;;;;;3.52;89.67;101795.66;1035421;28;20306;-76
2022/05/03 02:42:41;;;;;;;6.43;5.82;;;;;;;3.50;89.90;101802.91;1035638;28;20288;-76
2022/05/03 02:43:15;;;;;;;5.85;5.30;;;;;;;3.44;90.01;101803.47;1037773;28;20304;-76
2022/05/03 02:43:47;;;;;;;6.32;5.50;;;;;;;3.16;90.33;101802.63;1035514;28;20296;-76
2022/05/03 02:44:20;;;;;;;5.75;5.13;;;;;;;3.19;90.68;101809.41;1035311;28;20387;-76
2022/05/03 02:44:57;;;;;;;7.07;5.20;;;;;;;3.33;90.94;101804.53;1032912;28;20297;-76
2022/05/03 02:45:31;;;;;;;12.50;5.43;;;;;;;3.27;91.05;101810.34;1035207;28;20312;-76
2022/05/03 02:46:24;;;;;;;8.02;5.60;;;;;;;3.25;91.25;101804.38;1039788;28;20295;-76
2022/05/03 02:47:06;;;;;;;6.22;5.30;;;;;;;2.96;91.52;101801.84;1043024;28;20291;-76
2022/05/03 02:47:46;;;;;;;6.03;4.78;;;;;;;3.15;91.63;101811.50;1043712;28;20303;-76
2022/05/03 02:48:23;;;;;;;6.75;4.93;;;;;;;2.96;91.18;101803.66;1041725;28;20292;-76
2022/05/03 02:49:04;;;;;;;7.13;5.60;;;;;;;3.14;91.62;101801.13;1043908;28;20041;-76
2022/05/03 02:49:42;;;;;;;7.15;5.57;;;;;;;3.30;91.17;101809.25;1039911;28;20292;-76
2022/05/03 02:50:18;;;;;;;7.63;5.13;;;;;;;3.26;90.75;101806.03;1034995;28;20038;-76
2022/05/03 02:50:54;;;;;;;5.63;5.13;;;;;;;3.41;90.57;101809.06;1032298;28;20718;-76
2022/05/03 02:51:35;;;;;;;7.50;5.82;;;;;;;3.30;90.74;101811.88;1034008;28;20788;-76
2022/05/03 02:52:49;;;;;;;7.82;6.38;;;;;;;3.37;90.74;101808.50;1032380;28;20302;-76
2022/05/03 02:53:29;;;;;;;13.00;5.15;;;;;;;3.04;90.73;101807.25;1030974;28;20373;-77
2022/05/03 02:54:15;;;;;;;6.28;5.00;;;;;;;3.05;90.89;101805.44;1038476;28;20315;-76
2022/05/03 02:55:08;;;;;;;9.27;5.28;;;;;;;3.22;91.01;101812.56;1038485;28;20049;-76
2022/05/03 02:55:50;;;;;;;6.55;5.70;;;;;;;3.51;90.94;101798.44;1034614;28;20301;-76
2022/05/03 02:56:24;;;;;;;11.00;5.75;;;;;;;3.26;90.89;101805.22;1034562;28;20301;-76
2022/05/03 02:57:19;;;;;;;7.53;5.70;;;;;;;3.29;91.36;101800.53;1037586;28;20293;-77
2022/05/03 02:57:55;;;;;;;15.32;6.55;;;;;;;3.26;91.51;101800.78;1037086;28;20297;-76
2022/05/03 02:59:02;;;;;;;13.07;6.95;;;;;;;3.24;92.03;101802.72;1043129;28;20303;-76
2022/05/03 03:02:09;;;;;;;8.02;5.78;;;;;;;3.49;92.39;101798.59;1043195;28;20299;-76
2022/05/03 03:03:14;;;;;;;9.50;5.70;;;;;;;3.44;92.06;101792.94;1037608;28;20454;-76
2022/05/03 03:04:01;;;;;;;10.85;6.45;;;;;;;3.29;92.43;101800.53;1039743;28;20698;-76
2022/05/03 03:04:41;;;;;;;18.73;6.05;;;;;;;3.01;92.03;101798.78;1042382;28;20785;-77
2022/05/03 03:05:17;;;;;;;6.90;5.90;;;;;;;3.00;92.42;101797.13;1039861;28;20343;-76
2022/05/03 03:05:56;;;;;;;7.43;5.55;;;;;;;3.23;92.94;101794.97;1043638;28;20299;-76
2022/05/03 03:06:31;;;;;;;16.77;6.00;;;;;;;3.30;92.42;101793.44;1039274;28;20307;-76
2022/05/03 03:07:04;;;;;;;11.23;5.32;;;;;;;2.99;92.84;101790.22;1037571;28;20350;-76
2022/05/03 03:07:53;;;;;;;6.82;5.50;;;;;;;2.68;92.83;101790.44;1039401;28;20367;-76
2022/05/03 03:08:28;;;;;;;8.73;6.05;;;;;;;2.52;93.86;101795.44;1036825;28;20651;-77
2022/05/03 03:09:00;;;;;;;8.18;6.28;;;;;;;2.59;94.54;101795.72;1038603;28;20310;-76
2022/05/03 03:09:41;;;;;;;6.53;5.78;;;;;;;2.64;94.58;101794.31;1038550;28;20359;-76
2022/05/03 03:10:19;;;;;;;6.85;5.63;;;;;;;2.81;94.89;101794.56;1039259;28;20296;-76
2022/05/03 03:10:53;;;;;;;7.78;6.53;;;;;;;2.95;94.91;101794.09;1042310;28;20041;-76
2022/05/03 03:11:33;;;;;;;10.55;6.72;;;;;;;2.84;94.36;101789.03;1044000;28;20809;-76
2022/05/03 03:12:22;;;;;;;8.40;6.40;;;;;;;2.45;94.58;101794.34;1043430;28;21617;-76
2022/05/03 03:13:00;;;;;;;11.40;6.47;;;;;;;2.16;95.20;101792.53;1040914;28;20500;-76
2022/05/03 03:13:56;;;;;;;6.10;5.50;;;;;;;2.08;95.57;101787.16;1037263;28;20814;-76
2022/05/03 03:14:35;;;;;;;8.50;7.30;;;;;;;1.96;95.57;101788.25;1037682;28;20296;-76
2022/05/03 03:15:09;;;;;;;9.52;5.88;;;;;;;1.86;96.57;101787.41;1041325;28;20299;-76
2022/05/03 03:15:41;;;;;;;8.18;6.57;;;;;;;1.80;96.80;101786.16;1044190;28;20685;-76
2022/05/03 03:16:14;;;;;;;11.63;6.80;;;;;;;1.78;97.21;101792.50;1044788;28;20291;-77
2022/05/03 03:17:03;;;;;;;9.77;6.65;;;;;;;1.68;97.33;101783.78;1040089;28;20668;-77
2022/05/03 03:17:38;;;;;;;10.77;6.25;;;;;;;1.77;98.22;101794.31;1041951;28;20303;-77
2022/05/03 03:18:14;;;;;;;8.57;6.72;;;;;;;1.94;98.42;101794.63;1043380;28;20681;-77
2022/05/03 03:18:46;;;;;;;10.73;6.78;;;;;;;2.11;98.61;101780.78;1039799;28;20374;-76
2022/05/03 03:19:20;;;;;;;8.68;7.03;;;;;;;2.37;98.30;101791.56;1037133;28;20702;-77
2022/05/03 03:20:03;;;;;;;7.65;6.68;;;;;;;2.55;98.84;101794.34;1034965;28;20304;-76
2022/05/03 03:20:36;;;;;;;9.73;7.47;;;;;;;2.27;97.99;101794.22;1035487;28;20293;-76
2022/05/03 03:21:08;;;;;;;8.73;7.38;;;;;;;2.28;98.32;101787.16;1041942;28;20400;-77
2022/05/03 03:21:41;;;;;;;10.65;8.02;;;;;;;2.28;98.31;101782.72;1041516;28;20303;-77
2022/05/03 03:22:14;;;;;;;8.55;7.55;;;;;;;2.31;98.03;101786.88;1043690;28;20307;-77